createdAt,value
2018-03-14T00:01:38.683Z,64.70
2018-03-14T00:04:06.151Z,64.70
2018-03-14T00:06:33.586Z,63.90
2018-03-14T00:09:01.064Z,64.10
2018-03-14T00:11:28.490Z,64.20
2018-03-14T00:13:55.921Z,64.30
2018-03-14T00:16:24.164Z,65.20
2018-03-14T00:18:51.595Z,65.20
2018-03-14T00:21:19.069Z,64.70
2018-03-14T00:23:46.501Z,64.80
2018-03-14T00:26:13.954Z,64.70
2018-03-14T00:28:41.435Z,64.40
2018-03-14T00:31:08.909Z,64.80
2018-03-14T00:33:36.339Z,65.10
2018-03-14T00:36:04.280Z,65.00
2018-03-14T00:38:31.781Z,64.40
2018-03-14T00:40:59.237Z,64.60
2018-03-14T00:43:26.704Z,64.50
2018-03-14T00:45:54.247Z,64.60
2018-03-14T00:48:21.683Z,64.40
2018-03-14T00:50:49.163Z,64.70
2018-03-14T00:53:16.675Z,64.20
2018-03-14T00:55:44.127Z,63.70
2018-03-14T00:58:12.331Z,64.00
2018-03-14T01:00:39.809Z,63.30
2018-03-14T01:03:07.240Z,64.10
2018-03-14T01:05:34.724Z,64.60
2018-03-14T01:08:02.191Z,64.20
2018-03-14T01:10:29.632Z,64.50
2018-03-14T01:12:57.091Z,64.20
2018-03-14T01:15:24.528Z,64.70
2018-03-14T01:17:51.967Z,64.10
2018-03-14T01:20:20.180Z,64.70
2018-03-14T01:22:47.619Z,64.60
2018-03-14T01:25:15.052Z,63.80
2018-03-14T01:27:42.508Z,64.30
2018-03-14T01:30:10.008Z,63.90
2018-03-14T01:32:37.444Z,64.00
2018-03-14T01:35:04.870Z,63.50
2018-03-14T01:37:33.104Z,63.80
2018-03-14T01:40:00.561Z,63.70
2018-03-14T01:42:28.009Z,63.20
2018-03-14T01:44:55.480Z,63.80
2018-03-14T01:47:22.911Z,63.80
2018-03-14T01:49:50.384Z,64.10
2018-03-14T01:52:17.839Z,64.00
2018-03-14T01:54:45.301Z,64.50
2018-03-14T01:57:12.732Z,63.80
2018-03-14T01:59:40.172Z,63.80
2018-03-14T02:02:07.675Z,63.70
2018-03-14T02:04:35.226Z,63.20
2018-03-14T02:07:02.682Z,63.40
2018-03-14T02:09:30.115Z,63.90
2018-03-14T02:11:57.540Z,63.90
2018-03-14T02:14:25.776Z,63.40
2018-03-14T02:16:53.201Z,63.30
2018-03-14T02:19:20.684Z,62.80
2018-03-14T02:21:48.121Z,62.10
2018-03-14T02:24:15.601Z,62.60
2018-03-14T02:26:43.043Z,62.90
2018-03-14T02:29:10.507Z,62.40
2018-03-14T02:31:37.953Z,62.20
2018-03-14T02:34:05.419Z,62.80
2018-03-14T02:36:44.692Z,62.50
2018-03-14T02:39:12.120Z,62.80
2018-03-14T02:41:39.588Z,62.40
2018-03-14T02:44:07.128Z,61.80
2018-03-14T02:46:34.584Z,61.80
2018-03-14T02:49:02.014Z,60.90
2018-03-14T02:51:29.444Z,61.70
2018-03-14T02:53:58.504Z,62.00
2018-03-14T02:56:25.948Z,62.00
2018-03-14T02:58:53.391Z,61.90
2018-03-14T03:01:20.826Z,61.40
2018-03-14T03:03:48.316Z,61.50
2018-03-14T03:06:15.748Z,62.00
2018-03-14T03:08:43.196Z,61.90
2018-03-14T03:11:10.629Z,61.40
2018-03-14T03:13:38.823Z,61.60
2018-03-14T03:16:06.312Z,61.60
2018-03-14T03:18:33.753Z,60.90
2018-03-14T03:21:01.194Z,61.00
2018-03-14T03:23:28.699Z,61.60
2018-03-14T03:25:56.147Z,61.20
2018-03-14T03:28:23.604Z,61.30
2018-03-14T03:30:51.058Z,60.90
2018-03-14T03:33:18.504Z,61.60
2018-03-14T03:35:45.952Z,61.90
2018-03-14T03:38:13.431Z,61.90
2018-03-14T03:40:40.888Z,61.70
2018-03-14T03:43:08.327Z,61.70
2018-03-14T03:45:35.759Z,61.30
2018-03-14T03:48:03.364Z,62.00
2018-03-14T03:50:30.807Z,61.40
2018-03-14T03:52:58.275Z,61.80
2018-03-14T03:55:25.718Z,61.30
2018-03-14T03:57:53.220Z,61.70
2018-03-14T04:00:20.747Z,61.70
2018-03-14T04:02:48.207Z,62.10
2018-03-14T04:05:15.639Z,61.40
2018-03-14T04:07:43.090Z,61.70
2018-03-14T04:10:10.579Z,62.00
2018-03-14T04:12:38.023Z,62.20
2018-03-14T04:15:05.471Z,62.70
2018-03-14T04:17:32.900Z,63.00
2018-03-14T04:20:01.121Z,63.00
2018-03-14T04:22:28.572Z,62.90
2018-03-14T04:24:56.039Z,63.20
2018-03-14T04:27:23.459Z,63.30
2018-03-14T04:29:51.354Z,63.30
2018-03-14T04:32:18.815Z,64.00
2018-03-14T04:34:46.245Z,63.60
2018-03-14T04:37:13.728Z,63.20
2018-03-14T04:39:41.183Z,63.30
2018-03-14T04:42:08.616Z,63.70
2018-03-14T04:44:36.036Z,63.50
2018-03-14T04:47:04.243Z,63.70
2018-03-14T04:49:31.668Z,63.60
2018-03-14T04:51:59.873Z,63.50
2018-03-14T04:54:27.324Z,63.40
2018-03-14T04:56:54.748Z,64.20
2018-03-14T04:59:22.180Z,63.90
2018-03-14T05:01:49.736Z,64.20
2018-03-14T05:04:17.288Z,64.20
2018-03-14T05:06:44.751Z,64.40
2018-03-14T05:09:12.179Z,64.70
2018-03-14T05:11:39.659Z,65.10
2018-03-14T05:14:07.112Z,64.70
2018-03-14T05:16:34.551Z,64.80
2018-03-14T05:19:01.981Z,64.80
2018-03-14T05:21:30.196Z,64.70
2018-03-14T05:23:57.636Z,64.60
2018-03-14T05:26:25.132Z,65.00
2018-03-14T05:28:52.551Z,64.20
2018-03-14T05:31:19.983Z,64.30
2018-03-14T05:33:48.187Z,65.10
2018-03-14T05:36:15.620Z,64.40
2018-03-14T05:38:43.076Z,65.10
2018-03-14T05:41:11.288Z,64.70
2018-03-14T05:43:38.724Z,64.60
2018-03-14T05:46:06.171Z,64.20
2018-03-14T05:48:33.664Z,64.20
2018-03-14T05:51:01.119Z,64.70
2018-03-14T05:53:28.579Z,64.70
2018-03-14T05:55:56.120Z,64.20
2018-03-14T05:58:23.555Z,64.70
2018-03-14T06:00:51.051Z,64.00
2018-03-14T06:03:18.495Z,64.20
2018-03-14T06:05:45.920Z,64.70
2018-03-14T06:08:13.425Z,64.80
2018-03-14T06:10:40.871Z,64.60
2018-03-14T06:13:08.332Z,64.80
2018-03-14T06:15:35.765Z,64.90
2018-03-14T06:18:03.252Z,65.00
2018-03-14T06:20:30.805Z,64.80
2018-03-14T06:22:58.227Z,65.00
2018-03-14T06:25:25.720Z,65.30
2018-03-14T06:27:53.152Z,65.20
2018-03-14T06:30:20.627Z,65.20
2018-03-14T06:32:48.087Z,65.30
2018-03-14T06:35:15.524Z,65.50
2018-03-14T06:37:44.558Z,65.30
2018-03-14T06:40:11.995Z,65.80
2018-03-14T06:42:39.429Z,65.80
2018-03-14T06:45:07.375Z,65.60
2018-03-14T06:47:35.568Z,66.50
2018-03-14T06:50:03.013Z,65.80
2018-03-14T06:52:30.508Z,65.10
2018-03-14T06:54:57.948Z,65.10
2018-03-14T06:57:25.390Z,65.10
2018-03-14T07:00:04.904Z,65.00
2018-03-14T07:02:42.151Z,64.70
2018-03-14T07:05:22.920Z,64.60
2018-03-14T07:07:50.355Z,64.50
2018-03-14T07:10:17.780Z,64.70
2018-03-14T07:12:45.983Z,64.60
2018-03-14T07:15:13.464Z,64.60
2018-03-14T07:17:40.899Z,65.30
2018-03-14T07:20:08.333Z,64.80
2018-03-14T07:22:36.560Z,64.80
2018-03-14T07:25:04.000Z,64.90
2018-03-14T07:27:31.439Z,64.80
2018-03-14T07:29:58.932Z,64.00
2018-03-14T07:32:26.380Z,63.90
2018-03-14T07:34:53.865Z,64.30
2018-03-14T07:37:21.295Z,64.30
2018-03-14T07:39:48.735Z,64.10
2018-03-14T07:42:16.204Z,64.00
2018-03-14T07:44:43.656Z,64.40
2018-03-14T07:47:11.119Z,64.10
2018-03-14T07:49:38.587Z,63.70
2018-03-14T07:52:06.012Z,63.70
2018-03-14T07:54:33.466Z,63.90
2018-03-14T07:57:00.883Z,64.30
2018-03-14T07:59:29.083Z,64.30
2018-03-14T08:01:56.578Z,64.40
2018-03-14T08:04:24.037Z,64.90
2018-03-14T08:06:51.479Z,64.80
2018-03-14T08:09:18.960Z,64.60
2018-03-14T08:11:46.387Z,64.40
2018-03-14T08:14:13.808Z,64.10
2018-03-14T08:16:42.032Z,63.60
2018-03-14T08:19:09.513Z,63.60
2018-03-14T08:21:36.947Z,63.50
2018-03-14T08:24:04.384Z,63.50
2018-03-14T08:26:31.878Z,63.50
2018-03-14T08:28:59.336Z,63.00
2018-03-14T08:31:26.885Z,62.50
2018-03-14T08:33:54.544Z,62.10
2018-03-14T08:36:21.995Z,62.10
2018-03-14T08:38:49.452Z,61.70
2018-03-14T08:41:16.885Z,60.40
2018-03-14T08:43:44.375Z,60.50
2018-03-14T08:46:12.036Z,61.80
2018-03-14T08:48:39.467Z,60.40
2018-03-14T08:51:06.948Z,60.90
2018-03-14T08:53:34.402Z,61.20
2018-03-14T08:56:01.856Z,60.90
2018-03-14T08:58:29.312Z,61.80
2018-03-14T09:00:56.752Z,60.40
2018-03-14T09:03:24.196Z,60.30
2018-03-14T09:05:51.684Z,60.40
2018-03-14T09:08:19.120Z,60.30
2018-03-14T09:10:46.591Z,60.50
2018-03-14T09:13:14.160Z,60.60
2018-03-14T09:15:41.611Z,60.50
2018-03-14T09:18:09.068Z,60.70
2018-03-14T09:20:36.524Z,60.70
2018-03-14T09:23:03.979Z,60.50
2018-03-14T09:25:31.429Z,60.30
2018-03-14T09:27:58.896Z,60.10
2018-03-14T09:30:26.338Z,60.10
2018-03-14T09:32:53.771Z,59.70
2018-03-14T09:35:21.202Z,59.40
2018-03-14T09:37:49.400Z,60.90
2018-03-14T09:40:16.895Z,60.40
2018-03-14T09:42:44.358Z,60.90
2018-03-14T09:45:11.808Z,59.50
2018-03-14T09:47:39.271Z,60.00
2018-03-14T09:50:06.704Z,60.10
2018-03-14T09:52:34.131Z,59.50
2018-03-14T09:55:02.343Z,59.10
2018-03-14T09:57:29.924Z,59.00
2018-03-14T09:59:57.475Z,58.50
2018-03-14T10:02:24.927Z,58.80
2018-03-14T10:04:52.383Z,57.40
2018-03-14T10:07:19.899Z,57.10
2018-03-14T10:09:48.120Z,55.20
2018-03-14T10:12:15.562Z,55.10
2018-03-14T10:14:42.997Z,56.40
2018-03-14T10:17:10.488Z,56.70
2018-03-14T10:19:37.943Z,56.20
2018-03-14T10:22:05.404Z,56.60
2018-03-14T10:24:33.476Z,56.80
2018-03-14T10:27:00.909Z,56.60
2018-03-14T10:29:28.362Z,57.10
2018-03-14T10:31:55.795Z,56.90
2018-03-14T10:34:23.992Z,55.10
2018-03-14T10:36:51.441Z,55.10
2018-03-14T10:39:18.934Z,55.00
2018-03-14T10:41:46.495Z,54.20
2018-03-14T10:44:13.947Z,54.20
2018-03-14T10:46:41.381Z,54.80
2018-03-14T10:49:08.869Z,55.10
2018-03-14T10:51:36.324Z,54.50
2018-03-14T10:54:04.484Z,54.80
2018-03-14T10:56:31.925Z,54.90
2018-03-14T10:58:59.407Z,55.20
2018-03-14T11:01:26.840Z,54.90
2018-03-14T11:03:54.323Z,54.50
2018-03-14T11:06:21.768Z,54.80
2018-03-14T11:08:49.252Z,54.60
2018-03-14T11:11:16.692Z,54.70
2018-03-14T11:13:44.145Z,54.80
2018-03-14T11:16:11.584Z,54.80
2018-03-14T11:18:39.064Z,54.20
2018-03-14T11:21:06.536Z,54.30
2018-03-14T11:23:34.101Z,54.40
2018-03-14T11:26:01.941Z,53.90
2018-03-14T11:28:29.376Z,53.70
2018-03-14T11:30:56.867Z,54.00
2018-03-14T11:33:24.379Z,54.40
2018-03-14T11:35:51.874Z,53.90
2018-03-14T11:38:19.319Z,54.00
2018-03-14T11:40:46.788Z,54.40
2018-03-14T11:43:14.231Z,53.80
2018-03-14T11:45:41.696Z,53.40
2018-03-14T11:48:09.169Z,53.20
2018-03-14T11:50:36.616Z,52.30
2018-03-14T11:53:04.059Z,53.50
2018-03-14T11:55:31.495Z,53.70
2018-03-14T11:57:58.950Z,53.60
2018-03-14T12:00:26.412Z,53.60
2018-03-14T12:02:53.844Z,53.20
2018-03-14T12:05:22.067Z,54.20
2018-03-14T12:07:49.504Z,54.20
2018-03-14T12:10:16.976Z,54.80
2018-03-14T12:12:44.408Z,55.00
2018-03-14T12:15:11.930Z,55.20
2018-03-14T12:17:39.678Z,55.20
2018-03-14T12:20:07.120Z,55.00
2018-03-14T12:22:34.555Z,54.90
2018-03-14T12:25:01.993Z,54.50
2018-03-14T12:27:29.439Z,54.80
2018-03-14T12:29:57.672Z,55.10
2018-03-14T12:32:25.100Z,55.00
2018-03-14T12:34:52.539Z,54.80
2018-03-14T12:37:20.011Z,54.20
2018-03-14T12:39:47.448Z,54.10
2018-03-14T12:42:14.939Z,54.00
2018-03-14T12:44:43.124Z,53.20
2018-03-14T12:47:10.554Z,53.20
2018-03-14T12:49:38.014Z,54.00
2018-03-14T12:52:05.505Z,53.90
2018-03-14T12:54:32.939Z,54.30
2018-03-14T12:57:00.383Z,52.90
2018-03-14T12:59:27.812Z,52.00
2018-03-14T13:01:56.038Z,52.80
2018-03-14T13:04:23.472Z,53.40
2018-03-14T13:06:50.923Z,53.10
2018-03-14T13:09:18.408Z,53.10
2018-03-14T13:11:45.853Z,52.50
2018-03-14T13:14:13.319Z,52.40
2018-03-14T13:16:40.753Z,51.60
2018-03-14T13:19:08.216Z,52.00
2018-03-14T13:21:35.694Z,52.10
2018-03-14T13:24:03.148Z,52.20
2018-03-14T13:26:30.620Z,52.50
2018-03-14T13:28:58.051Z,51.20
2018-03-14T13:31:25.520Z,51.30
2018-03-14T13:33:52.956Z,51.90
2018-03-14T13:36:20.439Z,52.70
2018-03-14T13:38:47.900Z,52.40
2018-03-14T13:41:15.460Z,52.90
2018-03-14T13:43:42.901Z,52.40
2018-03-14T13:46:10.327Z,52.30
2018-03-14T13:48:37.760Z,52.70
2018-03-14T13:51:05.968Z,52.10
2018-03-14T13:53:33.447Z,52.10
2018-03-14T13:56:01.004Z,52.10
2018-03-14T13:58:28.437Z,52.40
2018-03-14T14:00:55.876Z,52.30
2018-03-14T14:03:24.088Z,52.20
2018-03-14T14:05:52.446Z,52.20
2018-03-14T14:08:19.884Z,52.50
2018-03-14T14:10:48.080Z,52.60
2018-03-14T14:13:15.564Z,52.50
2018-03-14T14:15:43.007Z,52.40
2018-03-14T14:18:10.447Z,53.00
2018-03-14T14:20:38.338Z,52.70
2018-03-14T14:23:05.774Z,52.80
2018-03-14T14:25:33.812Z,52.90
2018-03-14T14:28:01.328Z,53.00
2018-03-14T14:30:28.798Z,53.00
2018-03-14T14:32:56.205Z,52.70
2018-03-14T14:35:23.640Z,53.20
2018-03-14T14:37:51.871Z,54.10
2018-03-14T14:40:19.333Z,53.50
2018-03-14T14:42:47.228Z,52.40
2018-03-14T14:45:14.663Z,52.70
2018-03-14T14:47:42.212Z,53.40
2018-03-14T14:50:09.651Z,52.70
2018-03-14T14:52:37.124Z,53.40
2018-03-14T14:55:04.584Z,53.60
2018-03-14T14:57:32.044Z,53.50
2018-03-14T14:59:59.492Z,53.80
2018-03-14T15:02:26.959Z,53.40
2018-03-14T15:04:54.731Z,52.80
2018-03-14T15:07:22.176Z,52.80
2018-03-14T15:09:49.631Z,53.50
2018-03-14T15:12:17.077Z,53.50
2018-03-14T15:14:44.555Z,52.90
2018-03-14T15:17:12.014Z,52.70
2018-03-14T15:19:39.436Z,53.20
2018-03-14T15:22:06.868Z,53.30
2018-03-14T15:24:35.072Z,53.40
2018-03-14T15:27:02.552Z,53.50
2018-03-14T15:29:30.005Z,53.70
2018-03-14T15:31:57.464Z,52.80
2018-03-14T15:34:25.022Z,53.20
2018-03-14T15:36:52.459Z,52.80
2018-03-14T15:39:19.932Z,53.70
2018-03-14T15:41:47.387Z,53.50
2018-03-14T15:44:14.947Z,53.40
2018-03-14T15:46:42.423Z,52.90
2018-03-14T15:49:09.852Z,52.90
2018-03-14T15:51:37.418Z,53.50
2018-03-14T15:54:04.875Z,53.00
2018-03-14T15:56:33.253Z,52.30
2018-03-14T15:59:00.695Z,53.50
2018-03-14T16:01:28.167Z,52.40
2018-03-14T16:03:55.610Z,52.70
2018-03-14T16:06:23.083Z,53.50
2018-03-14T16:08:50.516Z,53.60
2018-03-14T16:11:17.968Z,53.80
2018-03-14T16:13:45.410Z,53.10
2018-03-14T16:16:12.843Z,53.40
2018-03-14T16:18:41.061Z,53.20
2018-03-14T16:21:08.540Z,53.20
2018-03-14T16:23:36.107Z,53.40
2018-03-14T16:26:03.564Z,53.80
2018-03-14T16:28:31.116Z,54.00
2018-03-14T16:30:58.561Z,53.60
2018-03-14T16:33:26.140Z,53.80
2018-03-14T16:35:53.579Z,54.60
2018-03-14T16:38:21.049Z,54.00
2018-03-14T16:40:48.607Z,54.50
2018-03-14T16:43:16.047Z,54.50
2018-03-14T16:45:43.496Z,54.20
2018-03-14T16:48:10.928Z,54.40
2018-03-14T16:50:38.430Z,54.60
2018-03-14T16:53:07.701Z,54.20
2018-03-14T16:55:35.997Z,54.90
2018-03-14T16:58:03.431Z,54.90
2018-03-14T17:00:30.875Z,54.80
2018-03-14T17:02:58.319Z,54.90
2018-03-14T17:05:26.533Z,55.40
2018-03-14T17:07:54.008Z,55.40
2018-03-14T17:10:21.463Z,55.50
2018-03-14T17:12:48.928Z,55.20
2018-03-14T17:15:16.375Z,55.50
2018-03-14T17:17:43.840Z,55.60
2018-03-14T17:20:11.395Z,55.40
2018-03-14T17:22:38.851Z,55.20
2018-03-14T17:25:06.287Z,55.90
2018-03-14T17:27:33.988Z,56.20
2018-03-14T17:30:01.428Z,56.30
2018-03-14T17:32:28.885Z,56.60
2018-03-14T17:34:56.340Z,56.30
2018-03-14T17:37:23.803Z,56.40
2018-03-14T17:39:51.662Z,56.60
2018-03-14T17:42:19.140Z,56.60
2018-03-14T17:44:46.583Z,56.90
2018-03-14T17:47:14.016Z,57.10
2018-03-14T17:49:41.507Z,57.20
2018-03-14T17:52:09.056Z,57.40
2018-03-14T17:54:36.613Z,57.50
2018-03-14T17:57:04.043Z,57.20
2018-03-14T17:59:31.500Z,57.50
2018-03-14T18:01:58.947Z,57.70
2018-03-14T18:04:26.390Z,57.60
2018-03-14T18:06:54.593Z,57.60
2018-03-14T18:09:24.753Z,57.50
2018-03-14T18:11:52.246Z,57.60
2018-03-14T18:14:19.712Z,57.90
2018-03-14T18:16:47.168Z,57.70
2018-03-14T18:19:15.370Z,57.70
2018-03-14T18:21:42.803Z,57.70
2018-03-14T18:24:10.248Z,57.80
2018-03-14T18:26:37.692Z,57.90
2018-03-14T18:29:05.899Z,58.20
2018-03-14T18:31:33.337Z,58.10
2018-03-14T18:34:00.775Z,58.30
2018-03-14T18:36:29.000Z,58.30
2018-03-14T18:38:56.444Z,58.30
2018-03-14T18:41:23.893Z,58.40
2018-03-14T18:43:51.353Z,58.40
2018-03-14T18:46:18.801Z,58.40
2018-03-14T18:48:46.263Z,58.50
2018-03-14T18:51:13.704Z,58.30
2018-03-14T18:53:41.154Z,58.50
2018-03-14T18:56:09.366Z,59.70
2018-03-14T18:58:36.837Z,59.70
2018-03-14T19:01:04.290Z,59.70
2018-03-14T19:03:31.703Z,59.60
2018-03-14T19:06:01.405Z,60.10
2018-03-14T19:08:29.616Z,60.20
2018-03-14T19:10:57.073Z,60.20
2018-03-14T19:13:24.495Z,59.80
2018-03-14T19:15:52.819Z,59.80
2018-03-14T19:18:20.292Z,59.90
2018-03-14T19:20:47.736Z,59.80
2018-03-14T19:23:15.171Z,59.80
2018-03-14T19:25:42.605Z,59.60
2018-03-14T19:28:10.108Z,59.50
2018-03-14T19:30:37.528Z,59.30
2018-03-14T19:33:04.973Z,59.30
2018-03-14T19:35:33.167Z,59.20
2018-03-14T19:38:00.670Z,59.10
2018-03-14T19:40:28.133Z,59.10
2018-03-14T19:42:55.572Z,59.00
2018-03-14T19:45:23.033Z,58.90
2018-03-14T19:47:50.468Z,58.80
2018-03-14T19:50:17.913Z,58.80
2018-03-14T19:52:45.408Z,58.80
2018-03-14T19:55:12.840Z,58.70
2018-03-14T19:57:40.311Z,58.60
2018-03-14T20:00:07.802Z,59.00
2018-03-14T20:05:18.859Z,58.40
2018-03-14T20:07:46.311Z,58.90
2018-03-14T20:10:13.808Z,58.90
2018-03-14T20:12:41.240Z,58.60
2018-03-14T20:15:08.698Z,59.00
2018-03-14T20:17:36.199Z,59.00
2018-03-14T20:20:03.792Z,59.10
2018-03-14T20:22:31.257Z,58.90
2018-03-14T20:24:58.924Z,58.80
2018-03-14T20:27:26.351Z,58.60
2018-03-14T20:29:53.824Z,58.60
2018-03-14T20:32:21.266Z,58.70
2018-03-14T20:34:48.701Z,58.60
2018-03-14T20:37:16.160Z,58.60
2018-03-14T20:39:43.609Z,58.70
2018-03-14T20:42:11.840Z,59.00
2018-03-14T20:44:39.304Z,59.00
2018-03-14T20:47:06.744Z,58.80
2018-03-14T20:49:34.191Z,58.60
2018-03-14T20:52:01.627Z,58.50
2018-03-14T20:54:29.061Z,58.50
2018-03-14T20:56:57.251Z,58.80
2018-03-14T20:59:24.717Z,59.40
2018-03-14T21:01:52.155Z,58.60
2018-03-14T21:04:20.363Z,58.40
2018-03-14T21:06:47.794Z,58.40
2018-03-14T21:09:15.243Z,58.40
2018-03-14T21:11:43.460Z,58.30
2018-03-14T21:14:10.896Z,58.30
2018-03-14T21:16:38.384Z,58.50
2018-03-14T21:19:05.823Z,58.70
2018-03-14T21:21:33.247Z,58.70
2018-03-14T21:24:00.687Z,58.50
2018-03-14T21:26:28.903Z,58.50
2018-03-14T21:28:56.338Z,58.50
2018-03-14T21:31:23.969Z,58.40
2018-03-14T21:33:51.400Z,58.60
2018-03-14T21:36:18.835Z,58.70
2018-03-14T21:38:46.267Z,58.50
2018-03-14T21:41:14.494Z,58.30
2018-03-14T21:43:41.939Z,58.50
2018-03-14T21:46:09.372Z,58.50
2018-03-14T21:48:36.856Z,58.60
2018-03-14T21:51:04.379Z,58.60
2018-03-14T21:53:31.776Z,58.40
2018-03-14T21:55:59.224Z,58.70
2018-03-14T21:58:26.682Z,58.70
2018-03-14T22:00:54.148Z,58.40
2018-03-14T22:03:21.598Z,58.40
2018-03-14T22:05:49.034Z,58.30
2018-03-14T22:08:16.528Z,58.40
2018-03-14T22:10:43.928Z,58.40
2018-03-14T22:13:11.832Z,58.50
2018-03-14T22:15:39.266Z,58.40
2018-03-14T22:18:06.720Z,58.40
2018-03-14T22:20:34.204Z,58.40
2018-03-14T22:23:01.635Z,58.50
2018-03-14T22:25:29.076Z,58.60
2018-03-14T22:27:57.279Z,58.40
2018-03-14T22:30:24.723Z,58.40
2018-03-14T22:32:52.151Z,58.50
2018-03-14T22:35:20.357Z,59.00
2018-03-14T22:37:47.783Z,58.40
2018-03-14T22:40:15.985Z,58.40
2018-03-14T22:42:43.468Z,58.40
2018-03-14T22:45:10.923Z,58.40
2018-03-14T22:47:38.376Z,58.40
2018-03-14T22:50:05.827Z,58.60
2018-03-14T22:52:33.330Z,58.80
2018-03-14T22:55:01.567Z,58.40
2018-03-14T22:57:29.004Z,58.30
2018-03-14T22:59:56.440Z,58.30
2018-03-14T23:02:23.985Z,58.20
2018-03-14T23:04:52.171Z,58.40
2018-03-14T23:07:19.606Z,58.40
2018-03-14T23:09:47.136Z,58.50
2018-03-14T23:12:14.675Z,58.40
2018-03-14T23:14:42.144Z,58.20
2018-03-14T23:17:10.038Z,58.10
2018-03-14T23:19:39.977Z,58.00
2018-03-14T23:22:07.551Z,58.40
2018-03-14T23:24:35.741Z,58.30
2018-03-14T23:27:03.283Z,58.20
2018-03-14T23:29:30.883Z,58.20
2018-03-14T23:31:58.339Z,58.20
2018-03-14T23:34:25.796Z,58.10
2018-03-14T23:36:53.260Z,58.10
2018-03-14T23:39:20.695Z,58.20
2018-03-14T23:41:48.140Z,58.00
2018-03-14T23:44:15.573Z,57.90
2018-03-14T23:46:44.232Z,58.20
2018-03-14T23:49:11.664Z,58.20
2018-03-14T23:51:39.113Z,58.00
2018-03-14T23:54:06.540Z,58.10
2018-03-14T23:56:33.995Z,58.20
2018-03-14T23:59:01.429Z,58.10
